createdAt,value
2023-03-27T00:00:39.882Z,999.71
2023-03-27T00:01:39.902Z,999.74
2023-03-27T00:02:39.983Z,999.80
2023-03-27T00:03:40.071Z,999.75
2023-03-27T00:04:39.925Z,999.77
2023-03-27T00:05:39.931Z,999.86
2023-03-27T00:06:39.944Z,999.83
2023-03-27T00:07:39.953Z,999.81
2023-03-27T00:08:39.965Z,999.81
2023-03-27T00:09:39.976Z,999.85
2023-03-27T00:10:39.982Z,999.85
2023-03-27T00:11:39.991Z,999.85
2023-03-27T00:12:40.002Z,999.93
2023-03-27T00:13:42.659Z,999.94
2023-03-27T00:14:40.028Z,999.98
2023-03-27T00:15:40.030Z,999.99
2023-03-27T00:16:40.074Z,999.99
2023-03-27T00:17:40.090Z,1000.01
2023-03-27T00:18:40.059Z,1000.04
2023-03-27T00:19:40.074Z,1000.00
2023-03-27T00:20:40.112Z,1000.09
2023-03-27T00:21:40.089Z,1000.01
2023-03-27T00:22:40.101Z,1000.09
2023-03-27T00:23:40.108Z,1000.11
2023-03-27T00:24:40.121Z,1000.07
2023-03-27T00:25:40.127Z,1000.15
2023-03-27T00:26:40.135Z,1000.10
2023-03-27T00:27:40.149Z,1000.09
2023-03-27T00:28:40.160Z,1000.08
2023-03-27T00:29:40.165Z,1000.12
2023-03-27T00:30:40.198Z,1000.18
2023-03-27T00:31:40.185Z,1000.15
2023-03-27T00:32:40.227Z,1000.19
2023-03-27T00:33:40.206Z,1000.23
2023-03-27T00:34:40.213Z,1000.23
2023-03-27T00:35:40.236Z,1000.22
2023-03-27T00:36:40.232Z,1000.23
2023-03-27T00:37:40.242Z,1000.23
2023-03-27T00:38:40.254Z,1000.23
2023-03-27T00:39:40.263Z,1000.25
2023-03-27T00:40:40.352Z,1000.28
2023-03-27T00:41:40.281Z,1000.32
2023-03-27T00:42:40.297Z,1000.36
2023-03-27T00:43:40.327Z,1000.31
2023-03-27T00:44:40.309Z,1000.34
2023-03-27T00:45:40.318Z,1000.38
2023-03-27T00:46:40.394Z,1000.40
2023-03-27T00:47:40.368Z,1000.47
2023-03-27T00:48:40.350Z,1000.47
2023-03-27T00:49:40.359Z,1000.46
2023-03-27T00:50:40.373Z,1000.53
2023-03-27T00:51:40.380Z,1000.51
2023-03-27T00:52:40.383Z,1000.53
2023-03-27T00:53:40.393Z,1000.56
2023-03-27T00:54:40.449Z,1000.56
2023-03-27T00:55:40.414Z,1000.53
2023-03-27T00:56:40.450Z,1000.56
2023-03-27T00:57:40.432Z,1000.53
2023-03-27T00:58:40.443Z,1000.52
2023-03-27T00:59:40.454Z,1000.53
2023-03-27T01:00:40.497Z,1000.51
2023-03-27T01:01:40.526Z,1000.51
2023-03-27T01:02:40.590Z,1000.53
2023-03-27T01:03:40.545Z,1000.58
2023-03-27T01:04:40.501Z,1000.57
2023-03-27T01:05:40.509Z,1000.56
2023-03-27T01:06:40.514Z,1000.65
2023-03-27T01:07:40.521Z,1000.68
2023-03-27T01:08:40.534Z,1000.69
2023-03-27T01:09:40.543Z,1000.72
2023-03-27T01:10:40.556Z,1000.77
2023-03-27T01:11:40.562Z,1000.76
2023-03-27T01:12:40.574Z,1000.79
2023-03-27T01:13:40.580Z,1000.82
2023-03-27T01:14:40.595Z,1000.78
2023-03-27T01:15:40.639Z,1000.77
2023-03-27T01:16:40.612Z,1000.78
2023-03-27T01:17:40.647Z,1000.81
2023-03-27T01:18:40.633Z,1000.70
2023-03-27T01:19:40.639Z,1000.72
2023-03-27T01:20:40.644Z,1000.74
2023-03-27T01:21:40.658Z,1000.76
2023-03-27T01:22:40.666Z,1000.73
2023-03-27T01:23:58.818Z,1000.79
2023-03-27T01:24:40.682Z,1000.79
2023-03-27T01:25:40.703Z,1000.86
2023-03-27T01:26:40.698Z,1000.86
2023-03-27T01:27:40.707Z,1000.91
2023-03-27T01:28:40.720Z,1000.96
2023-03-27T01:29:40.727Z,1000.93
2023-03-27T01:30:40.736Z,1001.01
2023-03-27T01:31:40.783Z,1000.99
2023-03-27T01:32:40.786Z,1001.00
2023-03-27T01:33:40.764Z,1001.05
2023-03-27T01:34:40.775Z,1001.07
2023-03-27T01:35:40.805Z,1000.99
2023-03-27T01:36:40.791Z,1001.07
2023-03-27T01:37:40.801Z,1001.05
2023-03-27T01:38:40.810Z,1001.10
2023-03-27T01:39:40.834Z,1001.06
2023-03-27T01:40:40.827Z,1001.10
2023-03-27T01:41:40.838Z,1001.10
2023-03-27T01:42:40.874Z,1001.11
2023-03-27T01:43:40.857Z,1001.17
2023-03-27T01:44:44.149Z,1001.14
2023-03-27T01:45:40.875Z,1001.16
2023-03-27T01:46:40.904Z,1001.19
2023-03-27T01:47:40.937Z,1001.20
2023-03-27T01:48:40.911Z,1001.19
2023-03-27T01:49:40.911Z,1001.24
2023-03-27T01:50:40.923Z,1001.26
2023-03-27T01:51:40.929Z,1001.24
2023-03-27T01:52:40.944Z,1001.28
2023-03-27T01:53:40.949Z,1001.24
2023-03-27T01:54:40.960Z,1001.22
2023-03-27T01:55:40.967Z,1001.30
2023-03-27T01:56:40.998Z,1001.25
2023-03-27T01:57:48.925Z,1001.29
2023-03-27T01:58:40.992Z,1001.33
2023-03-27T01:59:41.009Z,1001.36
2023-03-27T02:00:52.212Z,1001.31
2023-03-27T02:01:41.100Z,1001.32
2023-03-27T02:02:41.077Z,1001.26
2023-03-27T02:03:41.066Z,1001.31
2023-03-27T02:04:41.098Z,1001.35
2023-03-27T02:05:41.058Z,1001.33
2023-03-27T02:06:41.072Z,1001.36
2023-03-27T02:07:41.087Z,1001.40
2023-03-27T02:08:41.093Z,1001.34
2023-03-27T02:09:41.096Z,1001.37
2023-03-27T02:10:41.123Z,1001.33
2023-03-27T02:11:41.127Z,1001.38
2023-03-27T02:12:41.126Z,1001.38
2023-03-27T02:13:41.131Z,1001.43
2023-03-27T02:14:41.140Z,1001.43
2023-03-27T02:15:41.150Z,1001.38
2023-03-27T02:16:41.210Z,1001.36
2023-03-27T02:17:41.204Z,1001.48
2023-03-27T02:18:41.179Z,1001.44
2023-03-27T02:19:41.188Z,1001.53
2023-03-27T02:20:41.200Z,1001.58
2023-03-27T02:21:41.208Z,1001.59
2023-03-27T02:22:41.217Z,1001.57
2023-03-27T02:23:41.234Z,1001.63
2023-03-27T02:24:41.238Z,1001.57
2023-03-27T02:25:41.247Z,1001.64
2023-03-27T02:26:41.252Z,1001.60
2023-03-27T02:27:41.269Z,1001.72
2023-03-27T02:28:41.277Z,1001.59
2023-03-27T02:29:41.287Z,1001.73
2023-03-27T02:30:41.293Z,1001.71
2023-03-27T02:31:41.389Z,1001.73
2023-03-27T02:32:41.449Z,1001.72
2023-03-27T02:33:41.315Z,1001.77
2023-03-27T02:34:41.327Z,1001.79
2023-03-27T02:35:41.363Z,1001.79
2023-03-27T02:36:41.342Z,1001.80
2023-03-27T02:37:41.359Z,1001.90
2023-03-27T02:38:41.398Z,1001.90
2023-03-27T02:39:41.386Z,1001.88
2023-03-27T02:40:41.379Z,1001.97
2023-03-27T02:41:41.391Z,1002.01
2023-03-27T02:42:41.402Z,1002.02
2023-03-27T02:43:41.408Z,1001.98
2023-03-27T02:44:47.355Z,1001.98
2023-03-27T02:45:41.468Z,1002.04
2023-03-27T02:46:41.437Z,1002.04
2023-03-27T02:47:41.462Z,1002.01
2023-03-27T02:48:41.454Z,1002.03
2023-03-27T02:49:41.463Z,1002.06
2023-03-27T02:50:41.473Z,1002.11
2023-03-27T02:51:41.480Z,1002.16
2023-03-27T02:52:41.493Z,1002.21
2023-03-27T02:53:41.522Z,1002.18
2023-03-27T02:54:41.510Z,1002.23
2023-03-27T02:55:41.520Z,1002.28
2023-03-27T02:56:41.570Z,1002.29
2023-03-27T02:57:41.541Z,1002.23
2023-03-27T02:58:41.544Z,1002.32
2023-03-27T02:59:41.553Z,1002.34
2023-03-27T03:00:41.565Z,1002.32
2023-03-27T03:01:41.636Z,1002.37
2023-03-27T03:02:41.669Z,1002.39
2023-03-27T03:03:41.590Z,1002.37
2023-03-27T03:04:41.669Z,1002.40
2023-03-27T03:05:41.608Z,1002.41
2023-03-27T03:06:41.614Z,1002.42
2023-03-27T03:07:41.630Z,1002.39
2023-03-27T03:08:41.638Z,1002.42
2023-03-27T03:09:41.649Z,1002.49
2023-03-27T03:10:41.649Z,1002.51
2023-03-27T03:11:41.661Z,1002.49
2023-03-27T03:12:41.669Z,1002.44
2023-03-27T03:13:41.685Z,1002.50
2023-03-27T03:14:41.686Z,1002.50
2023-03-27T03:15:41.695Z,1002.49
2023-03-27T03:16:41.757Z,1002.52
2023-03-27T03:17:41.746Z,1002.53
2023-03-27T03:18:41.745Z,1002.53
2023-03-27T03:19:41.739Z,1002.54
2023-03-27T03:20:41.738Z,1002.61
2023-03-27T03:21:41.748Z,1002.60
2023-03-27T03:22:41.757Z,1002.68
2023-03-27T03:23:41.769Z,1002.71
2023-03-27T03:24:42.012Z,1002.63
2023-03-27T03:25:41.779Z,1002.69
2023-03-27T03:26:41.790Z,1002.73
2023-03-27T03:27:41.797Z,1002.67
2023-03-27T03:28:41.805Z,1002.73
2023-03-27T03:29:41.818Z,1002.88
2023-03-27T03:30:41.926Z,1002.75
2023-03-27T03:31:41.834Z,1002.77
2023-03-27T03:32:41.869Z,1002.87
2023-03-27T03:33:41.852Z,1002.83
2023-03-27T03:34:41.864Z,1002.84
2023-03-27T03:35:41.868Z,1002.87
2023-03-27T03:36:41.926Z,1002.87
2023-03-27T03:37:41.889Z,1002.88
2023-03-27T03:38:41.893Z,1002.92
2023-03-27T03:39:41.904Z,1002.92
2023-03-27T03:40:41.920Z,1002.89
2023-03-27T03:41:41.919Z,1002.94
2023-03-27T03:42:41.928Z,1002.89
2023-03-27T03:43:41.936Z,1003.01
2023-03-27T03:44:41.945Z,1002.95
2023-03-27T03:45:41.950Z,1002.96
2023-03-27T03:46:41.962Z,1003.02
2023-03-27T03:47:42.043Z,1002.99
2023-03-27T03:48:41.976Z,1003.07
2023-03-27T03:49:41.987Z,1003.06
2023-03-27T03:50:42.007Z,1003.04
2023-03-27T03:51:42.012Z,1003.09
2023-03-27T03:52:42.016Z,1003.11
2023-03-27T03:53:42.024Z,1003.11
2023-03-27T03:54:42.028Z,1003.12
2023-03-27T03:55:42.042Z,1003.19
2023-03-27T03:56:42.081Z,1003.08
2023-03-27T03:57:42.068Z,1003.21
2023-03-27T03:58:42.065Z,1003.21
2023-03-27T03:59:42.073Z,1003.20
2023-03-27T04:00:42.082Z,1003.23
2023-03-27T04:01:42.134Z,1003.22
2023-03-27T04:02:42.161Z,1003.28
2023-03-27T04:03:42.287Z,1003.32
2023-03-27T04:04:42.113Z,1003.31
2023-03-27T04:05:42.118Z,1003.24
2023-03-27T04:06:42.128Z,1003.30
2023-03-27T04:07:42.163Z,1003.28
2023-03-27T04:08:42.148Z,1003.23
2023-03-27T04:09:42.155Z,1003.25
2023-03-27T04:10:42.162Z,1003.27
2023-03-27T04:11:42.172Z,1003.27
2023-03-27T04:12:42.178Z,1003.32
2023-03-27T04:13:42.187Z,1003.32
2023-03-27T04:14:42.194Z,1003.37
2023-03-27T04:15:42.231Z,1003.36
2023-03-27T04:16:42.221Z,1003.34
2023-03-27T04:17:42.342Z,1003.43
2023-03-27T04:18:42.464Z,1003.44
2023-03-27T04:19:42.239Z,1003.44
2023-03-27T04:20:42.244Z,1003.44
2023-03-27T04:21:42.282Z,1003.48
2023-03-27T04:22:42.258Z,1003.48
2023-03-27T04:23:42.270Z,1003.48
2023-03-27T04:24:42.276Z,1003.47
2023-03-27T04:25:42.325Z,1003.54
2023-03-27T04:26:42.293Z,1003.46
2023-03-27T04:27:42.304Z,1003.52
2023-03-27T04:28:42.315Z,1003.52
2023-03-27T04:29:42.320Z,1003.59
2023-03-27T04:30:42.330Z,1003.57
2023-03-27T04:31:42.380Z,1003.58
2023-03-27T04:32:42.378Z,1003.64
2023-03-27T04:33:42.358Z,1003.63
2023-03-27T04:34:42.377Z,1003.64
2023-03-27T04:35:42.408Z,1003.62
2023-03-27T04:36:42.378Z,1003.68
2023-03-27T04:37:42.391Z,1003.68
2023-03-27T04:38:42.397Z,1003.71
2023-03-27T04:39:42.406Z,1003.70
2023-03-27T04:40:42.414Z,1003.73
2023-03-27T04:41:42.433Z,1003.67
2023-03-27T04:42:42.489Z,1003.73
2023-03-27T04:43:42.439Z,1003.74
2023-03-27T04:44:42.459Z,1003.67
2023-03-27T04:45:42.458Z,1003.73
2023-03-27T04:46:42.541Z,1003.69
2023-03-27T04:47:42.550Z,1003.71
2023-03-27T04:48:42.485Z,1003.74
2023-03-27T04:49:42.485Z,1003.71
2023-03-27T04:50:42.496Z,1003.78
2023-03-27T04:51:42.506Z,1003.83
2023-03-27T04:52:42.513Z,1003.83
2023-03-27T04:53:42.522Z,1003.84
2023-03-27T04:54:42.527Z,1003.87
2023-03-27T04:55:42.540Z,1003.86
2023-03-27T04:56:42.576Z,1003.89
2023-03-27T04:57:42.559Z,1003.92
2023-03-27T04:58:42.570Z,1003.97
2023-03-27T04:59:42.572Z,1003.99
2023-03-27T05:00:42.605Z,1004.04
2023-03-27T05:01:42.641Z,1004.01
2023-03-27T05:02:42.619Z,1004.04
2023-03-27T05:03:42.649Z,1004.09
2023-03-27T05:04:42.607Z,1004.11
2023-03-27T05:05:42.614Z,1004.12
2023-03-27T05:06:42.622Z,1004.17
2023-03-27T05:07:42.628Z,1004.22
2023-03-27T05:08:42.637Z,1004.19
2023-03-27T05:09:42.652Z,1004.27
2023-03-27T05:10:42.656Z,1004.21
2023-03-27T05:11:42.666Z,1004.25
2023-03-27T05:12:42.673Z,1004.22
2023-03-27T05:13:42.676Z,1004.26
2023-03-27T05:14:42.683Z,1004.27
2023-03-27T05:15:42.692Z,1004.28
2023-03-27T05:16:42.750Z,1004.25
2023-03-27T05:17:42.764Z,1004.28
2023-03-27T05:18:42.718Z,1004.29
2023-03-27T05:19:42.723Z,1004.30
2023-03-27T05:20:42.729Z,1004.35
2023-03-27T05:21:42.738Z,1004.37
2023-03-27T05:22:42.747Z,1004.38
2023-03-27T05:23:42.755Z,1004.37
2023-03-27T05:24:42.774Z,1004.41
2023-03-27T05:25:42.778Z,1004.39
2023-03-27T05:26:42.785Z,1004.39
2023-03-27T05:27:42.790Z,1004.40
2023-03-27T05:28:42.793Z,1004.42
2023-03-27T05:29:46.763Z,1004.46
2023-03-27T05:30:42.838Z,1004.46
2023-03-27T05:31:42.818Z,1004.51
2023-03-27T05:32:42.830Z,1004.49
2023-03-27T05:33:42.832Z,1004.51
2023-03-27T05:34:42.840Z,1004.49
2023-03-27T05:35:42.890Z,1004.54
2023-03-27T05:36:42.875Z,1004.54
2023-03-27T05:37:42.864Z,1004.57
2023-03-27T05:38:42.881Z,1004.57
2023-03-27T05:39:42.889Z,1004.58
2023-03-27T05:40:42.902Z,1004.57
2023-03-27T05:41:42.902Z,1004.63
2023-03-27T05:42:42.917Z,1004.63
2023-03-27T05:43:42.915Z,1004.68
2023-03-27T05:44:42.921Z,1004.67
2023-03-27T05:45:42.967Z,1004.73
2023-03-27T05:46:43.025Z,1004.77
2023-03-27T05:47:42.971Z,1004.76
2023-03-27T05:48:42.961Z,1004.77
2023-03-27T05:49:42.983Z,1004.82
2023-03-27T05:50:42.967Z,1004.83
2023-03-27T05:51:46.884Z,1004.83
2023-03-27T05:52:42.982Z,1004.80
2023-03-27T05:53:43.004Z,1004.88
2023-03-27T05:54:43.000Z,1004.86
2023-03-27T05:55:43.014Z,1004.81
2023-03-27T05:56:43.054Z,1004.93
2023-03-27T05:57:43.021Z,1004.90
2023-03-27T05:58:43.033Z,1004.93
2023-03-27T05:59:43.041Z,1004.88
2023-03-27T06:00:43.061Z,1004.98
2023-03-27T06:01:43.058Z,1004.96
2023-03-27T06:02:43.132Z,1004.98
2023-03-27T06:03:43.205Z,1005.03
2023-03-27T06:04:43.116Z,1005.04
2023-03-27T06:05:43.088Z,1005.13
2023-03-27T06:06:43.096Z,1005.10
2023-03-27T06:07:43.590Z,1005.12
2023-03-27T06:08:43.147Z,1005.15
2023-03-27T06:09:43.119Z,1005.16
2023-03-27T06:10:43.129Z,1005.17
2023-03-27T06:11:43.151Z,1005.12
2023-03-27T06:12:43.146Z,1005.20
2023-03-27T06:13:43.153Z,1005.16
2023-03-27T06:14:43.158Z,1005.22
2023-03-27T06:15:43.326Z,1005.29
2023-03-27T06:16:43.195Z,1005.28
2023-03-27T06:17:43.222Z,1005.31
2023-03-27T06:18:43.196Z,1005.27
2023-03-27T06:19:43.200Z,1005.26
2023-03-27T06:20:43.207Z,1005.33
2023-03-27T06:21:43.219Z,1005.30
2023-03-27T06:22:43.241Z,1005.33
2023-03-27T06:23:43.234Z,1005.31
2023-03-27T06:24:43.253Z,1005.35
2023-03-27T06:25:43.247Z,1005.41
2023-03-27T06:26:43.259Z,1005.41
2023-03-27T06:27:43.267Z,1005.41
2023-03-27T06:28:43.273Z,1005.43
2023-03-27T06:29:43.294Z,1005.50
2023-03-27T06:30:43.298Z,1005.41
2023-03-27T06:31:43.343Z,1005.46
2023-03-27T06:32:43.342Z,1005.41
2023-03-27T06:33:43.318Z,1005.41
2023-03-27T06:34:43.326Z,1005.48
2023-03-27T06:35:43.343Z,1005.44
2023-03-27T06:36:43.353Z,1005.46
2023-03-27T06:37:43.374Z,1005.55
2023-03-27T06:38:43.364Z,1005.55
2023-03-27T06:39:43.377Z,1005.53
2023-03-27T06:40:43.376Z,1005.61
2023-03-27T06:41:43.383Z,1005.59
2023-03-27T06:42:43.517Z,1005.59
2023-03-27T06:43:43.404Z,1005.58
2023-03-27T06:44:43.419Z,1005.56
2023-03-27T06:45:43.464Z,1005.65
2023-03-27T06:46:45.819Z,1005.56
2023-03-27T06:47:53.698Z,1005.71
2023-03-27T06:48:43.516Z,1005.69
2023-03-27T06:49:43.456Z,1005.68
2023-03-27T06:50:43.462Z,1005.68
2023-03-27T06:51:43.476Z,1005.72
2023-03-27T06:52:43.481Z,1005.75
2023-03-27T06:53:43.490Z,1005.81
2023-03-27T06:54:43.500Z,1005.80
2023-03-27T06:55:43.509Z,1005.85
2023-03-27T06:56:43.549Z,1005.84
2023-03-27T06:57:43.532Z,1005.91
2023-03-27T06:58:43.536Z,1005.94
2023-03-27T06:59:43.588Z,1005.94
2023-03-27T07:00:43.561Z,1005.98
2023-03-27T07:01:43.637Z,1005.93
2023-03-27T07:02:43.627Z,1005.97
2023-03-27T07:03:43.584Z,1005.98
2023-03-27T07:04:54.103Z,1006.00
2023-03-27T07:05:43.660Z,1005.99
2023-03-27T07:06:43.611Z,1006.02
2023-03-27T07:07:43.620Z,1006.00
2023-03-27T07:08:43.634Z,1006.03
2023-03-27T07:09:43.649Z,1005.99
2023-03-27T07:10:43.663Z,1005.99
2023-03-27T07:11:43.667Z,1005.95
2023-03-27T07:12:43.668Z,1005.96
2023-03-27T07:13:43.689Z,1005.93
2023-03-27T07:14:43.683Z,1005.97
2023-03-27T07:15:43.705Z,1005.95
2023-03-27T07:16:43.778Z,1006.02
2023-03-27T07:17:48.890Z,1006.03
2023-03-27T07:18:43.738Z,1006.03
2023-03-27T07:19:43.737Z,1006.06
2023-03-27T07:20:43.747Z,1006.04
2023-03-27T07:21:43.769Z,1006.02
2023-03-27T07:22:43.772Z,1006.04
2023-03-27T07:23:43.775Z,1006.02
2023-03-27T07:24:43.783Z,1006.01
2023-03-27T07:25:43.793Z,1006.02
2023-03-27T07:26:43.806Z,1006.03
2023-03-27T07:27:43.820Z,1006.02
2023-03-27T07:28:43.825Z,1006.05
2023-03-27T07:29:43.837Z,1006.11
2023-03-27T07:30:43.850Z,1006.07
2023-03-27T07:31:56.983Z,1006.04
2023-03-27T07:32:44.188Z,1006.20
2023-03-27T07:33:43.990Z,1006.08
2023-03-27T07:34:43.884Z,1006.15
2023-03-27T07:35:43.942Z,1006.26
2023-03-27T07:36:43.906Z,1006.23
2023-03-27T07:37:43.915Z,1006.15
2023-03-27T07:38:43.927Z,1006.25
2023-03-27T07:39:43.942Z,1006.30
2023-03-27T07:40:43.977Z,1006.33
2023-03-27T07:41:43.958Z,1006.25
2023-03-27T07:42:43.968Z,1006.20
2023-03-27T07:43:43.980Z,1006.13
2023-03-27T07:44:43.992Z,1006.23
2023-03-27T07:45:44.034Z,1006.27
2023-03-27T07:46:44.013Z,1006.29
2023-03-27T07:47:44.038Z,1006.31
2023-03-27T07:48:44.044Z,1006.30
2023-03-27T07:49:44.044Z,1006.41
2023-03-27T07:50:44.056Z,1006.35
2023-03-27T07:51:44.068Z,1006.35
2023-03-27T07:52:44.076Z,1006.30
2023-03-27T07:53:44.090Z,1006.22
2023-03-27T07:54:44.101Z,1006.23
2023-03-27T07:55:44.110Z,1006.26
2023-03-27T07:56:44.219Z,1006.24
2023-03-27T07:58:44.179Z,1006.19
2023-03-27T07:59:44.154Z,1006.32
2023-03-27T08:00:44.164Z,1006.42
2023-03-27T08:01:44.178Z,1006.38
2023-03-27T08:02:44.228Z,1006.29
2023-03-27T08:03:44.313Z,1006.35
2023-03-27T08:04:44.316Z,1006.36
2023-03-27T08:05:44.236Z,1006.34
2023-03-27T08:06:44.236Z,1006.40
2023-03-27T08:07:44.240Z,1006.14
2023-03-27T08:08:44.252Z,1006.32
2023-03-27T08:09:44.272Z,1006.31
2023-03-27T08:10:44.275Z,1006.23
2023-03-27T08:11:44.302Z,1006.29
2023-03-27T08:12:44.295Z,1006.25
2023-03-27T08:13:44.305Z,1006.33
2023-03-27T08:14:44.320Z,1006.24
2023-03-27T08:15:44.333Z,1006.28
2023-03-27T08:16:44.371Z,1006.24
2023-03-27T08:17:44.460Z,1006.23
2023-03-27T08:18:44.368Z,1006.28
2023-03-27T08:19:44.369Z,1006.27
2023-03-27T08:20:44.382Z,1006.34
2023-03-27T08:21:44.395Z,1006.36
2023-03-27T08:22:44.402Z,1006.40
2023-03-27T08:23:44.415Z,1006.51
2023-03-27T08:24:44.423Z,1006.60
2023-03-27T08:25:44.440Z,1006.47
2023-03-27T08:26:44.453Z,1006.57
2023-03-27T08:27:44.458Z,1006.52
2023-03-27T08:28:44.471Z,1006.45
2023-03-27T08:29:44.478Z,1006.43
2023-03-27T08:30:44.553Z,1006.45
2023-03-27T08:31:44.503Z,1006.60
2023-03-27T08:32:44.618Z,1006.58
2023-03-27T08:33:44.540Z,1006.61
2023-03-27T08:34:44.534Z,1006.64
2023-03-27T08:35:44.571Z,1006.76
2023-03-27T08:36:44.561Z,1006.66
2023-03-27T08:37:44.567Z,1006.66
2023-03-27T08:38:44.579Z,1006.66
2023-03-27T08:39:44.592Z,1006.65
2023-03-27T08:40:44.602Z,1006.69
2023-03-27T08:41:44.626Z,1006.72
2023-03-27T08:42:44.627Z,1006.61
2023-03-27T08:43:44.640Z,1006.64
2023-03-27T08:44:44.648Z,1006.62
2023-03-27T08:45:44.663Z,1006.61
2023-03-27T08:46:44.725Z,1006.67
2023-03-27T08:47:44.746Z,1006.67
2023-03-27T08:48:44.749Z,1006.82
2023-03-27T08:49:44.707Z,1006.74
2023-03-27T08:50:44.719Z,1006.75
2023-03-27T08:51:44.730Z,1006.72
2023-03-27T08:52:44.742Z,1006.69
2023-03-27T08:53:44.763Z,1006.68
2023-03-27T08:54:44.776Z,1006.77
2023-03-27T08:55:44.791Z,1006.91
2023-03-27T08:56:44.820Z,1006.82
2023-03-27T08:57:44.805Z,1006.87
2023-03-27T08:58:44.821Z,1006.86
2023-03-27T08:59:44.860Z,1006.74
2023-03-27T09:00:44.846Z,1006.80
2023-03-27T09:01:44.854Z,1006.81
2023-03-27T09:02:44.968Z,1006.81
2023-03-27T09:03:44.984Z,1006.97
2023-03-27T09:04:44.883Z,1007.00
2023-03-27T09:05:44.894Z,1006.96
2023-03-27T09:06:44.910Z,1006.96
2023-03-27T09:07:44.920Z,1006.97
2023-03-27T09:08:44.930Z,1006.95
2023-03-27T09:09:44.946Z,1007.00
2023-03-27T09:10:44.956Z,1006.95
2023-03-27T09:11:44.966Z,1007.04
2023-03-27T09:12:44.978Z,1006.98
2023-03-27T09:13:44.993Z,1007.08
2023-03-27T09:14:45.000Z,1006.98
2023-03-27T09:15:45.042Z,1007.03
2023-03-27T09:16:46.706Z,1007.02
2023-03-27T09:17:45.095Z,1007.04
2023-03-27T09:18:45.048Z,1007.01
2023-03-27T09:19:45.062Z,1007.08
2023-03-27T09:20:45.076Z,1007.05
2023-03-27T09:21:45.087Z,1007.08
2023-03-27T09:22:45.097Z,1007.10
2023-03-27T09:23:45.108Z,1007.03
2023-03-27T09:24:45.127Z,1006.98
2023-03-27T09:25:45.132Z,1006.97
2023-03-27T09:26:45.414Z,1007.02
2023-03-27T09:27:45.152Z,1007.10
2023-03-27T09:28:46.021Z,1007.08
2023-03-27T09:29:45.183Z,1007.08
2023-03-27T09:30:45.193Z,1007.09
2023-03-27T09:31:45.241Z,1007.14
2023-03-27T09:32:45.244Z,1007.15
2023-03-27T09:33:45.228Z,1007.23
2023-03-27T09:34:45.242Z,1007.12
2023-03-27T09:35:45.274Z,1007.11
2023-03-27T09:36:45.261Z,1007.03
2023-03-27T09:37:45.274Z,1007.14
2023-03-27T09:38:45.287Z,1007.22
2023-03-27T09:39:45.297Z,1007.12
2023-03-27T09:40:45.307Z,1007.17
2023-03-27T09:41:45.337Z,1007.24
2023-03-27T09:42:45.333Z,1007.28
2023-03-27T09:43:45.348Z,1007.31
2023-03-27T09:44:45.357Z,1007.22
2023-03-27T09:45:45.376Z,1007.27
2023-03-27T09:46:45.401Z,1007.35
2023-03-27T09:47:45.427Z,1007.34
2023-03-27T09:48:45.400Z,1007.40
2023-03-27T09:49:45.428Z,1007.40
2023-03-27T09:50:45.426Z,1007.28
2023-03-27T09:51:45.437Z,1007.21
2023-03-27T09:52:45.454Z,1007.15
2023-03-27T09:53:45.458Z,1007.14
2023-03-27T09:54:45.475Z,1007.23
2023-03-27T09:55:45.492Z,1007.23
2023-03-27T09:56:45.567Z,1007.19
2023-03-27T09:57:45.511Z,1007.36
2023-03-27T09:58:45.522Z,1007.36
2023-03-27T09:59:45.534Z,1007.33
2023-03-27T10:00:45.577Z,1007.39
2023-03-27T10:01:45.561Z,1007.35
2023-03-27T10:02:45.607Z,1007.48
2023-03-27T10:03:45.646Z,1007.39
2023-03-27T10:04:45.605Z,1007.37
2023-03-27T10:05:45.604Z,1007.30
2023-03-27T10:06:45.615Z,1007.27
2023-03-27T10:07:45.631Z,1007.27
2023-03-27T10:08:45.640Z,1007.42
2023-03-27T10:09:45.655Z,1007.40
2023-03-27T10:10:45.668Z,1007.35
2023-03-27T10:11:45.677Z,1007.50
2023-03-27T10:12:45.688Z,1007.43
2023-03-27T10:13:45.701Z,1007.38
2023-03-27T10:14:45.720Z,1007.37
2023-03-27T10:15:45.730Z,1007.34
2023-03-27T10:16:45.759Z,1007.22
2023-03-27T10:17:45.822Z,1007.43
2023-03-27T10:18:45.766Z,1007.35
2023-03-27T10:19:45.773Z,1007.28
2023-03-27T10:20:45.785Z,1007.25
2023-03-27T10:21:45.813Z,1007.27
2023-03-27T10:22:45.817Z,1007.25
2023-03-27T10:23:45.889Z,1007.16
2023-03-27T10:24:46.176Z,1007.17
2023-03-27T10:25:45.847Z,1007.17
2023-03-27T10:26:45.869Z,1007.12
2023-03-27T10:27:45.875Z,1007.26
2023-03-27T10:28:45.884Z,1007.23
2023-03-27T10:29:45.899Z,1007.24
2023-03-27T10:30:45.908Z,1007.44
2023-03-27T10:31:45.953Z,1007.34
2023-03-27T10:32:45.975Z,1007.37
2023-03-27T10:33:45.947Z,1007.34
2023-03-27T10:34:45.960Z,1007.28
2023-03-27T10:35:46.019Z,1007.37
2023-03-27T10:36:45.987Z,1007.36
2023-03-27T10:37:49.877Z,1007.37
2023-03-27T10:38:46.012Z,1007.40
2023-03-27T10:39:46.020Z,1007.43
2023-03-27T10:40:46.034Z,1007.41
2023-03-27T10:41:46.048Z,1007.56
2023-03-27T10:42:46.061Z,1007.48
2023-03-27T10:43:46.078Z,1007.53
2023-03-27T10:44:46.086Z,1007.55
2023-03-27T10:45:46.128Z,1007.64
2023-03-27T10:46:46.109Z,1007.58
2023-03-27T10:47:46.186Z,1007.58
2023-03-27T10:48:46.155Z,1007.57
2023-03-27T10:49:46.146Z,1007.49
2023-03-27T10:50:46.154Z,1007.58
2023-03-27T10:51:47.030Z,1007.54
2023-03-27T10:52:46.231Z,1007.55
2023-03-27T10:53:46.308Z,1007.56
2023-03-27T10:54:46.211Z,1007.60
2023-03-27T10:55:46.223Z,1007.60
2023-03-27T10:56:46.272Z,1007.69
2023-03-27T10:57:46.361Z,1007.68
2023-03-27T10:58:46.272Z,1007.75
2023-03-27T10:59:46.265Z,1007.54
2023-03-27T11:00:46.283Z,1007.69
2023-03-27T11:01:46.332Z,1007.73
2023-03-27T11:02:46.333Z,1007.80
2023-03-27T11:03:46.354Z,1007.71
2023-03-27T11:04:46.331Z,1007.70
2023-03-27T11:05:46.337Z,1007.74
2023-03-27T11:06:46.349Z,1007.67
2023-03-27T11:07:46.359Z,1007.63
2023-03-27T11:08:46.373Z,1007.60
2023-03-27T11:09:46.383Z,1007.59
2023-03-27T11:10:46.399Z,1007.58
2023-03-27T11:11:46.409Z,1007.62
2023-03-27T11:12:46.422Z,1007.56
2023-03-27T11:13:46.466Z,1007.58
2023-03-27T11:14:46.448Z,1007.48
2023-03-27T11:15:46.463Z,1007.47
2023-03-27T11:16:46.520Z,1007.49
2023-03-27T11:17:46.528Z,1007.46
2023-03-27T11:18:46.497Z,1007.49
2023-03-27T11:19:46.511Z,1007.57
2023-03-27T11:20:46.526Z,1007.66
2023-03-27T11:21:46.535Z,1007.63
2023-03-27T11:22:46.543Z,1007.72
2023-03-27T11:23:46.558Z,1007.74
2023-03-27T11:24:46.572Z,1007.69
2023-03-27T11:25:46.601Z,1007.73
2023-03-27T11:26:46.596Z,1007.70
2023-03-27T11:27:46.610Z,1007.92
2023-03-27T11:28:46.633Z,1007.71
2023-03-27T11:29:46.637Z,1007.71
2023-03-27T11:30:46.681Z,1007.69
2023-03-27T11:31:46.837Z,1007.74
2023-03-27T11:32:46.722Z,1007.73
2023-03-27T11:33:46.687Z,1007.67
2023-03-27T11:34:46.698Z,1007.71
2023-03-27T11:35:46.750Z,1007.67
2023-03-27T11:36:46.745Z,1007.62
2023-03-27T11:37:46.745Z,1007.65
2023-03-27T11:38:46.752Z,1007.59
2023-03-27T11:39:46.767Z,1007.62
2023-03-27T11:40:46.777Z,1007.67
2023-03-27T11:41:46.789Z,1007.70
2023-03-27T11:42:46.805Z,1007.61
2023-03-27T11:43:46.817Z,1007.67
2023-03-27T11:44:46.827Z,1007.73
2023-03-27T11:45:46.843Z,1007.71
2023-03-27T11:46:46.890Z,1007.81
2023-03-27T11:47:46.897Z,1007.78
2023-03-27T11:48:46.880Z,1007.73
2023-03-27T11:49:46.892Z,1007.73
2023-03-27T11:50:46.908Z,1007.74
2023-03-27T11:51:46.924Z,1007.72
2023-03-27T11:52:46.950Z,1007.68
2023-03-27T11:53:46.959Z,1007.69
2023-03-27T11:54:46.962Z,1007.68
2023-03-27T11:55:46.969Z,1007.67
2023-03-27T11:56:47.038Z,1007.65
2023-03-27T11:57:46.990Z,1007.70
2023-03-27T11:58:47.003Z,1007.66
2023-03-27T11:59:47.014Z,1007.74
2023-03-27T12:00:47.027Z,1007.72
2023-03-27T12:01:47.067Z,1007.76
2023-03-27T12:02:47.162Z,1007.85
2023-03-27T12:03:47.123Z,1007.75
2023-03-27T12:04:47.076Z,1007.85
2023-03-27T12:05:47.117Z,1007.79
2023-03-27T12:06:47.100Z,1007.70
2023-03-27T12:07:48.122Z,1007.96